createdAt,value
2018-06-08T00:02:18.922Z,99.90
2018-06-08T00:04:45.966Z,99.90
2018-06-08T00:07:12.972Z,99.90
2018-06-08T00:09:40.013Z,99.90
2018-06-08T00:12:07.053Z,99.90
2018-06-08T00:14:34.051Z,99.90
2018-06-08T00:17:01.055Z,99.90
2018-06-08T00:19:28.552Z,99.90
2018-06-08T00:21:55.565Z,99.90
2018-06-08T00:24:22.578Z,99.90
2018-06-08T00:29:17.537Z,99.90
2018-06-08T00:31:44.557Z,99.90
2018-06-08T00:34:13.323Z,99.90
2018-06-08T00:39:09.198Z,99.90
2018-06-08T00:41:36.251Z,99.90
2018-06-08T00:44:03.252Z,99.90
2018-06-08T00:49:08.487Z,99.90
2018-06-08T00:51:35.493Z,99.90
2018-06-08T00:54:02.491Z,99.90
2018-06-08T01:01:23.778Z,99.90
2018-06-08T01:03:50.825Z,99.90
2018-06-08T01:06:17.826Z,99.90
2018-06-08T01:08:44.937Z,99.90
2018-06-08T01:11:11.964Z,99.90
2018-06-08T01:13:39.709Z,99.90
2018-06-08T01:16:06.716Z,99.90
2018-06-08T01:18:33.763Z,99.90
2018-06-08T01:21:00.769Z,99.90
2018-06-08T01:23:27.770Z,99.90
2018-06-08T01:25:54.817Z,99.90
2018-06-08T01:30:48.940Z,99.90
2018-06-08T01:33:16.544Z,99.90
2018-06-08T01:35:43.354Z,99.90
2018-06-08T01:38:10.355Z,99.90
2018-06-08T01:40:37.402Z,99.90
2018-06-08T01:43:04.412Z,99.90
2018-06-08T01:45:31.418Z,99.90
2018-06-08T01:47:58.449Z,99.90
2018-06-08T01:50:25.458Z,99.90
2018-06-08T01:52:53.119Z,99.90
2018-06-08T01:55:20.364Z,99.90
2018-06-08T01:57:48.323Z,99.90
2018-06-08T02:00:18.766Z,99.90
2018-06-08T02:02:45.815Z,99.90
2018-06-08T02:07:52.368Z,99.90
2018-06-08T02:10:19.396Z,99.90
2018-06-08T02:12:47.117Z,99.90
2018-06-08T02:15:14.158Z,99.90
2018-06-08T02:17:41.162Z,99.90
2018-06-08T02:20:08.173Z,99.60
2018-06-08T02:22:35.237Z,99.20
2018-06-08T02:25:02.238Z,97.70
2018-06-08T02:27:30.125Z,96.70
2018-06-08T02:29:57.165Z,98.00
2018-06-08T02:32:24.195Z,97.10
2018-06-08T02:34:51.191Z,96.00
2018-06-08T02:37:18.235Z,97.20
2018-06-08T02:39:48.612Z,97.40
2018-06-08T02:44:42.738Z,99.90
2018-06-08T02:47:09.742Z,99.90
2018-06-08T02:52:04.759Z,98.80
2018-06-08T02:54:31.775Z,99.30
2018-06-08T02:56:58.801Z,99.90
2018-06-08T02:59:25.838Z,99.90
2018-06-08T03:01:52.840Z,99.90
2018-06-08T03:04:19.848Z,99.90
2018-06-08T03:06:46.893Z,99.90
2018-06-08T03:09:14.805Z,99.70
2018-06-08T03:11:41.812Z,99.50
2018-06-08T03:14:08.855Z,99.90
2018-06-08T03:16:35.859Z,99.90
2018-06-08T03:21:41.385Z,99.90
2018-06-08T03:24:08.378Z,99.90
2018-06-08T03:26:35.386Z,99.90
2018-06-08T03:29:02.437Z,99.90
2018-06-08T03:31:29.443Z,99.90
2018-06-08T03:33:56.446Z,99.90
2018-06-08T03:36:23.494Z,99.90
2018-06-08T03:41:30.190Z,99.90
2018-06-08T03:43:57.196Z,99.90
2018-06-08T03:49:01.401Z,99.90
2018-06-08T03:51:28.380Z,99.90
2018-06-08T03:53:55.392Z,99.90
2018-06-08T03:56:23.305Z,99.90
2018-06-08T03:58:50.328Z,99.90
2018-06-08T04:01:17.324Z,99.90
2018-06-08T04:03:45.188Z,99.90
2018-06-08T04:06:13.024Z,99.90
2018-06-08T04:08:40.124Z,99.90
2018-06-08T04:11:07.181Z,99.90
2018-06-08T04:13:34.199Z,99.90
2018-06-08T04:16:01.248Z,99.90
2018-06-08T04:18:29.284Z,99.90
2018-06-08T04:23:23.551Z,99.90
2018-06-08T04:25:50.625Z,99.90
2018-06-08T04:28:18.504Z,99.90
2018-06-08T04:33:13.487Z,99.90
2018-06-08T04:35:40.483Z,99.90
2018-06-08T04:38:07.498Z,99.90
2018-06-08T04:40:34.528Z,99.90
2018-06-08T04:45:28.626Z,99.10
2018-06-08T04:47:56.556Z,96.30
2018-06-08T04:50:23.553Z,96.90
2018-06-08T04:52:50.543Z,99.50
2018-06-08T04:55:19.385Z,98.70
2018-06-08T05:00:25.702Z,95.20
2018-06-08T05:02:52.704Z,93.50
2018-06-08T05:05:19.700Z,93.40
2018-06-08T05:07:46.914Z,91.70
2018-06-08T05:10:15.713Z,93.50
2018-06-08T05:12:42.647Z,91.70
2018-06-08T05:18:59.235Z,89.10
2018-06-08T05:21:26.231Z,91.30
2018-06-08T05:23:56.078Z,91.00
2018-06-08T05:26:23.101Z,93.20
2018-06-08T05:31:30.280Z,92.70
2018-06-08T05:33:57.326Z,92.00
2018-06-08T05:36:24.336Z,94.80
2018-06-08T05:38:51.354Z,90.60
2018-06-08T05:41:18.432Z,88.80
2018-06-08T05:43:45.463Z,88.60
2018-06-08T05:46:14.277Z,88.10
2018-06-08T05:48:41.347Z,86.50
2018-06-08T05:51:08.362Z,84.50
2018-06-08T05:53:35.396Z,82.40
2018-06-08T05:56:02.442Z,83.00
2018-06-08T05:58:29.451Z,85.10
2018-06-08T06:00:56.474Z,81.80
2018-06-08T06:03:23.538Z,81.00
2018-06-08T06:05:50.555Z,83.70
2018-06-08T06:08:17.569Z,81.60
2018-06-08T06:10:44.615Z,84.60
2018-06-08T06:15:38.737Z,86.50
2018-06-08T06:18:05.791Z,89.10
2018-06-08T06:20:33.196Z,89.80
2018-06-08T06:25:28.158Z,93.20
2018-06-08T06:27:55.176Z,92.20
2018-06-08T06:30:24.964Z,93.20
2018-06-08T06:32:51.116Z,93.40
2018-06-08T06:35:18.129Z,92.50
2018-06-08T06:37:45.154Z,89.60
2018-06-08T06:42:51.077Z,86.30
2018-06-08T06:45:18.224Z,84.50
2018-06-08T06:47:45.348Z,82.30
2018-06-08T06:52:40.569Z,76.90
2018-06-08T06:55:07.603Z,79.90
2018-06-08T06:57:35.461Z,79.60
2018-06-08T07:02:41.660Z,80.00
2018-06-08T07:05:08.722Z,81.70
2018-06-08T07:07:36.505Z,82.00
2018-06-08T07:10:03.532Z,79.70
2018-06-08T07:12:31.561Z,76.40
2018-06-08T07:14:58.598Z,78.10
2018-06-08T07:17:27.909Z,77.70
2018-06-08T07:19:54.965Z,81.50
2018-06-08T07:22:21.986Z,78.70
2018-06-08T07:24:49.053Z,77.90
2018-06-08T07:27:16.115Z,78.20
2018-06-08T07:29:44.123Z,76.30
2018-06-08T07:32:11.152Z,73.50
2018-06-08T07:34:38.204Z,73.80
2018-06-08T07:37:05.258Z,75.80
2018-06-08T07:39:33.332Z,66.70
2018-06-08T07:42:03.942Z,69.40
2018-06-08T07:44:31.833Z,69.00
2018-06-08T07:46:58.856Z,73.30
2018-06-08T07:49:26.849Z,70.30
2018-06-08T07:51:53.909Z,71.00
2018-06-08T07:54:21.897Z,68.60
2018-06-08T07:56:48.981Z,67.90
2018-06-08T07:59:16.006Z,71.40
2018-06-08T08:04:10.193Z,63.90
2018-06-08T08:06:37.212Z,64.80
2018-06-08T08:11:39.766Z,56.30
2018-06-08T08:14:06.789Z,56.80
2018-06-08T08:16:33.808Z,56.40
2018-06-08T08:19:01.718Z,54.00
2018-06-08T08:21:28.742Z,54.90
2018-06-08T08:23:55.770Z,53.80
2018-06-08T08:26:22.821Z,54.50
2018-06-08T08:28:49.832Z,48.20
2018-06-08T08:31:16.835Z,48.20
2018-06-08T08:33:43.893Z,46.10
2018-06-08T08:36:10.906Z,49.80
2018-06-08T08:41:05.034Z,36.60
2018-06-08T08:43:32.036Z,37.50
2018-06-08T08:45:59.062Z,38.90
2018-06-08T08:48:26.104Z,39.20
2018-06-08T08:50:53.139Z,31.00
2018-06-08T08:53:20.154Z,33.00
2018-06-08T08:55:47.577Z,34.60
2018-06-08T08:58:14.561Z,35.10
2018-06-08T09:00:41.563Z,34.70
2018-06-08T09:03:08.627Z,30.90
2018-06-08T09:08:02.758Z,29.70
2018-06-08T09:10:29.803Z,20.00
2018-06-08T09:12:56.804Z,25.00
2018-06-08T09:15:24.801Z,29.30
2018-06-08T09:17:51.832Z,27.00
2018-06-08T09:20:18.842Z,24.10
2018-06-08T09:22:46.801Z,17.70
2018-06-08T09:25:13.828Z,15.50
2018-06-08T09:30:21.390Z,11.50
2018-06-08T09:35:15.489Z,12.20
2018-06-08T09:37:42.528Z,11.60
2018-06-08T09:40:09.576Z,12.70
2018-06-08T09:42:37.646Z,10.50
2018-06-08T09:45:04.719Z,10.30
2018-06-08T09:47:32.601Z,8.10
2018-06-08T09:49:59.615Z,11.00
2018-06-08T09:52:28.397Z,9.90
2018-06-08T09:54:53.700Z,5.80
2018-06-08T09:57:20.702Z,6.50
2018-06-08T09:59:47.842Z,4.90
2018-06-08T10:02:14.832Z,7.10
2018-06-08T10:04:41.852Z,6.90
2018-06-08T10:07:09.341Z,4.10
2018-06-08T10:09:36.363Z,4.70
2018-06-08T10:12:04.369Z,5.90
2018-06-08T10:17:10.206Z,4.50
2018-06-08T10:19:37.270Z,4.90
2018-06-08T10:22:06.335Z,4.80
2018-06-08T10:24:33.380Z,5.50
2018-06-08T10:30:10.351Z,3.80
2018-06-08T10:32:37.404Z,3.70
2018-06-08T10:35:06.424Z,6.70
2018-06-08T10:37:33.385Z,5.30
2018-06-08T10:44:54.622Z,4.50
2018-06-08T10:47:21.682Z,4.60
2018-06-08T10:49:48.706Z,2.80
2018-06-08T10:52:15.718Z,4.10
2018-06-08T10:54:42.762Z,3.60
2018-06-08T10:57:09.844Z,3.90
2018-06-08T10:59:37.391Z,2.80
2018-06-08T11:02:04.751Z,2.70
2018-06-08T11:04:31.756Z,2.40
2018-06-08T11:06:58.772Z,4.40
2018-06-08T11:09:25.872Z,1.50
2018-06-08T11:11:52.958Z,4.10
2018-06-08T11:14:19.991Z,1.20
2018-06-08T11:21:44.229Z,2.60
2018-06-08T11:24:11.456Z,1.70
2018-06-08T11:26:38.438Z,2.80
2018-06-08T11:29:05.458Z,1.00
2018-06-08T11:31:32.496Z,2.10
2018-06-08T11:33:59.499Z,1.00
2018-06-08T11:36:33.458Z,1.00
2018-06-08T11:38:55.377Z,1.60
2018-06-08T11:41:23.393Z,2.00
2018-06-08T11:43:50.399Z,1.00
2018-06-08T11:46:18.323Z,1.10
2018-06-08T11:51:23.833Z,1.50
2018-06-08T11:53:50.839Z,1.00
2018-06-08T11:56:17.836Z,1.20
2018-06-08T11:58:44.861Z,1.70
2018-06-08T12:01:11.859Z,1.00
2018-06-08T12:03:38.878Z,1.00
2018-06-08T12:08:46.047Z,1.60
2018-06-08T12:11:13.072Z,1.10
2018-06-08T12:13:40.073Z,3.10
2018-06-08T12:16:07.071Z,2.40
2018-06-08T12:18:34.122Z,2.20
2018-06-08T12:23:43.258Z,1.60
2018-06-08T12:26:10.245Z,3.30
2018-06-08T12:28:38.204Z,3.50
2018-06-08T12:31:05.246Z,3.40
2018-06-08T12:33:32.247Z,3.60
2018-06-08T12:35:59.247Z,3.20
2018-06-08T12:38:26.263Z,4.20
2018-06-08T12:40:53.266Z,3.30
2018-06-08T12:43:21.116Z,3.00
2018-06-08T12:45:48.175Z,5.00
2018-06-08T12:48:15.983Z,5.90
2018-06-08T12:50:42.990Z,7.40
2018-06-08T12:53:10.054Z,4.20
2018-06-08T12:58:15.271Z,6.90
2018-06-08T13:00:42.291Z,11.10
2018-06-08T13:03:09.313Z,12.80
2018-06-08T13:05:36.395Z,12.70
2018-06-08T13:08:03.412Z,13.70
2018-06-08T13:10:31.171Z,14.20
2018-06-08T13:12:58.255Z,12.70
2018-06-08T13:15:26.177Z,10.10
2018-06-08T13:17:53.193Z,10.30
2018-06-08T13:20:21.220Z,13.10
2018-06-08T13:25:28.115Z,15.10
2018-06-08T13:27:55.152Z,15.80
2018-06-08T13:30:22.184Z,13.40
2018-06-08T13:32:49.249Z,15.50
2018-06-08T13:35:16.319Z,14.10
2018-06-08T13:37:43.364Z,11.70
2018-06-08T13:40:11.404Z,11.60
2018-06-08T13:42:40.226Z,9.30
2018-06-08T13:45:15.177Z,10.00
2018-06-08T13:50:25.875Z,10.30
2018-06-08T13:53:00.371Z,7.00
2018-06-08T13:59:39.841Z,10.20
2018-06-08T14:07:41.337Z,11.90
2018-06-08T14:10:11.952Z,11.30
2018-06-08T14:12:37.886Z,12.50
2018-06-08T14:17:39.902Z,13.30
2018-06-08T14:25:11.586Z,12.40
2018-06-08T14:27:38.827Z,13.90
2018-06-08T14:30:05.735Z,13.40
2018-06-08T14:32:33.894Z,14.20
2018-06-08T14:35:01.535Z,13.90
2018-06-08T14:37:29.155Z,14.70
2018-06-08T14:39:56.918Z,14.70
2018-06-08T14:42:23.976Z,14.20
2018-06-08T14:44:51.015Z,14.90
2018-06-08T14:49:58.102Z,12.00
2018-06-08T14:52:25.161Z,12.60
2018-06-08T14:54:52.248Z,12.40
2018-06-08T14:57:19.258Z,12.10
2018-06-08T14:59:46.792Z,11.10
2018-06-08T15:02:13.785Z,10.10
2018-06-08T15:04:40.847Z,10.50
2018-06-08T15:07:07.836Z,10.50
2018-06-08T15:09:34.842Z,10.60
2018-06-08T15:12:01.838Z,11.10
2018-06-08T15:14:29.738Z,10.80
2018-06-08T15:16:56.733Z,11.10
2018-06-08T15:19:23.760Z,10.70
2018-06-08T15:26:45.005Z,11.50
2018-06-08T15:29:12.060Z,11.40
2018-06-08T15:34:06.174Z,11.70
2018-06-08T15:36:33.230Z,11.10
2018-06-08T15:39:00.239Z,12.10
2018-06-08T15:41:28.197Z,12.50
2018-06-08T15:43:56.178Z,12.50
2018-06-08T15:48:50.284Z,13.80
2018-06-08T15:51:17.341Z,12.60
2018-06-08T15:53:44.327Z,12.20
2018-06-08T15:56:11.335Z,12.10
2018-06-08T15:58:39.323Z,12.40
2018-06-08T16:01:06.330Z,12.50
2018-06-08T16:03:34.286Z,12.80
2018-06-08T16:06:01.279Z,13.40
2018-06-08T16:08:28.307Z,12.00
2018-06-08T16:10:55.352Z,12.90
2018-06-08T16:13:22.396Z,13.90
2018-06-08T16:18:30.922Z,15.90
2018-06-08T16:20:57.925Z,17.20
2018-06-08T16:23:24.912Z,17.40
2018-06-08T16:25:51.951Z,17.40
2018-06-08T16:28:18.952Z,18.30
2018-06-08T16:30:45.957Z,18.50
2018-06-08T16:33:13.007Z,18.60
2018-06-08T16:35:40.259Z,18.90
2018-06-08T16:38:07.286Z,19.70
2018-06-08T16:40:34.359Z,20.60
2018-06-08T16:43:01.394Z,21.70
2018-06-08T16:45:29.267Z,23.60
2018-06-08T16:48:00.515Z,25.10
2018-06-08T16:50:28.383Z,26.70
2018-06-08T16:52:56.187Z,25.70
2018-06-08T16:55:24.172Z,24.70
2018-06-08T16:57:52.852Z,25.30
2018-06-08T17:00:19.810Z,24.90
2018-06-08T17:02:47.763Z,23.50
2018-06-08T17:05:15.735Z,22.40
2018-06-08T17:10:12.546Z,23.70
2018-06-08T17:12:40.402Z,23.90
2018-06-08T17:15:07.403Z,23.60
2018-06-08T17:17:34.453Z,23.90
2018-06-08T17:20:01.462Z,24.30
2018-06-08T17:22:28.462Z,24.60
2018-06-08T17:24:55.504Z,25.10
2018-06-08T17:27:22.512Z,25.10
2018-06-08T17:32:18.172Z,27.00
2018-06-08T17:34:45.944Z,27.20
2018-06-08T17:39:51.470Z,28.50
2018-06-08T17:44:46.325Z,28.80
2018-06-08T17:47:13.338Z,28.70
2018-06-08T17:49:40.336Z,28.90
2018-06-08T17:52:07.361Z,28.90
2018-06-08T17:54:34.411Z,28.50
2018-06-08T17:57:01.406Z,27.70
2018-06-08T18:01:57.335Z,28.70
2018-06-08T18:06:51.458Z,29.80
2018-06-08T18:11:50.114Z,32.20
2018-06-08T18:14:17.163Z,32.00
2018-06-08T18:16:45.176Z,31.60
2018-06-08T18:19:12.204Z,32.00
2018-06-08T18:21:39.225Z,31.50
2018-06-08T18:24:06.289Z,31.40
2018-06-08T18:26:33.295Z,31.80
2018-06-08T18:29:00.332Z,30.20
2018-06-08T18:31:27.344Z,28.00
2018-06-08T18:36:35.334Z,26.80
2018-06-08T18:39:02.513Z,27.10
2018-06-08T18:41:29.510Z,26.50
2018-06-08T18:43:56.559Z,26.40
2018-06-08T18:46:23.576Z,25.90
2018-06-08T18:48:50.601Z,25.00
2018-06-08T18:51:17.627Z,25.20
2018-06-08T18:53:44.631Z,26.70
2018-06-08T18:56:11.659Z,25.70
2018-06-08T18:58:38.836Z,25.60
2018-06-08T19:01:05.863Z,26.60
2018-06-08T19:03:33.137Z,28.60
2018-06-08T19:06:00.199Z,28.90
2018-06-08T19:08:27.245Z,29.40
2018-06-08T19:13:21.351Z,29.40
2018-06-08T19:15:48.399Z,29.70
2018-06-08T19:18:15.821Z,30.60
2018-06-08T19:20:42.690Z,31.50
2018-06-08T19:23:09.739Z,30.40
2018-06-08T19:25:37.002Z,29.90
2018-06-08T19:28:04.011Z,30.30
2018-06-08T19:30:31.036Z,30.50
2018-06-08T19:32:58.036Z,32.50
2018-06-08T19:35:25.057Z,33.40
2018-06-08T19:37:53.112Z,33.90
2018-06-08T19:40:20.122Z,35.20
2018-06-08T19:42:47.132Z,35.00
2018-06-08T19:45:14.168Z,34.50
2018-06-08T19:47:41.176Z,34.70
2018-06-08T19:50:08.188Z,33.80
2018-06-08T19:55:13.722Z,38.30
2018-06-08T19:57:40.761Z,36.50
2018-06-08T20:00:07.795Z,35.60
2018-06-08T20:02:34.788Z,35.50
2018-06-08T20:05:01.836Z,35.30
2018-06-08T20:07:28.849Z,34.70
2018-06-08T20:09:57.407Z,32.90
2018-06-08T20:12:24.464Z,34.20
2018-06-08T20:17:18.578Z,34.30
2018-06-08T20:19:45.625Z,34.40
2018-06-08T20:22:12.673Z,35.00
2018-06-08T20:24:39.664Z,33.90
2018-06-08T20:27:06.708Z,34.60
2018-06-08T20:29:33.741Z,36.10
2018-06-08T20:32:00.747Z,36.50
2018-06-08T20:34:27.797Z,37.30
2018-06-08T20:36:54.791Z,37.80
2018-06-08T20:39:21.791Z,39.10
2018-06-08T20:41:48.836Z,40.50
2018-06-08T20:44:15.838Z,40.70
2018-06-08T20:46:42.828Z,41.30
2018-06-08T20:49:09.873Z,43.30
2018-06-08T20:51:36.870Z,44.20
2018-06-08T20:54:04.134Z,43.20
2018-06-08T20:56:31.524Z,43.80
2018-06-08T20:58:58.498Z,43.80
2018-06-08T21:01:25.497Z,42.90
2018-06-08T21:03:52.527Z,44.00
2018-06-08T21:06:19.520Z,44.40
2018-06-08T21:08:46.525Z,44.00
2018-06-08T21:11:13.567Z,43.20
2018-06-08T21:18:47.093Z,46.30
2018-06-08T21:21:14.089Z,48.50
2018-06-08T21:26:11.146Z,50.60
2018-06-08T21:31:05.056Z,54.60
2018-06-08T21:33:31.993Z,54.80
2018-06-08T21:35:59.037Z,55.10
2018-06-08T21:38:26.042Z,54.20
2018-06-08T21:40:53.088Z,56.20
2018-06-08T21:43:20.103Z,58.70
2018-06-08T21:45:47.945Z,58.10
2018-06-08T21:48:15.177Z,56.90
2018-06-08T21:50:42.503Z,59.40
2018-06-08T21:53:09.334Z,60.30
2018-06-08T21:55:36.386Z,62.30
2018-06-08T21:58:03.409Z,61.50
2018-06-08T22:00:30.432Z,61.20
2018-06-08T22:02:57.496Z,59.90
2018-06-08T22:05:24.510Z,57.90
2018-06-08T22:07:51.503Z,57.80
2018-06-08T22:12:45.700Z,56.20
2018-06-08T22:15:12.741Z,55.10
2018-06-08T22:17:43.674Z,55.70
2018-06-08T22:20:10.672Z,54.80
2018-06-08T22:22:37.666Z,54.90
2018-06-08T22:25:04.723Z,55.10
2018-06-08T22:27:31.722Z,53.40
2018-06-08T22:29:58.775Z,55.60
2018-06-08T22:37:45.195Z,56.00
2018-06-08T22:40:12.262Z,57.20
2018-06-08T22:42:39.255Z,56.00
2018-06-08T22:45:06.656Z,56.50
2018-06-08T22:47:33.662Z,56.70
2018-06-08T22:50:00.698Z,57.50
2018-06-08T22:52:27.745Z,58.40
2018-06-08T22:54:54.806Z,58.10
2018-06-08T22:57:21.854Z,58.10
2018-06-08T22:59:48.920Z,60.30
2018-06-08T23:02:15.943Z,59.80
2018-06-08T23:04:43.399Z,59.20
2018-06-08T23:07:10.460Z,59.20
2018-06-08T23:09:37.478Z,58.90
2018-06-08T23:12:04.483Z,63.30
2018-06-08T23:14:34.411Z,66.90
2018-06-08T23:17:01.434Z,70.50
2018-06-08T23:19:28.884Z,68.90
2018-06-08T23:21:55.927Z,66.30
2018-06-08T23:24:22.910Z,70.50
2018-06-08T23:29:17.644Z,77.60
2018-06-08T23:31:44.943Z,79.00
2018-06-08T23:34:11.966Z,79.20
2018-06-08T23:36:39.064Z,81.60
2018-06-08T23:39:06.131Z,83.20
2018-06-08T23:41:33.162Z,82.60
2018-06-08T23:44:01.392Z,81.30
2018-06-08T23:46:29.386Z,78.80
2018-06-08T23:54:02.455Z,79.90
2018-06-08T23:56:30.443Z,74.10
2018-06-08T23:59:00.658Z,72.90
